Terminal Aerodrome Forecast
Issued by NWS Sterling, VA

Current Version | Previous Version | Graphics & Text | Print | Product List | Glossary On
Versions: 1 2 3 4 5 6 7 8 9 10 11 12 13 14 15 16 17 18 19 20 21 22 23 24 25 26 27 28
000
FTUS41 KLWX 310859 AAA
TAFDCA
TAF AMD
KDCA 310859Z 3109/0106 20006KT P6SM FEW250
     FM311200 23005KT P6SM BKN050
     FM311400 22010G15KT P6SM BKN090
     FM311600 23016G28KT P6SM BKN090
     FM312000 25016G28KT 6SM -SHRA SCT050 BKN090
     FM312300 27013G21KT P6SM BKN050 BKN090
     FM010200 30014KT P6SM BKN250=

USA.gov is the U.S. government's official web portal to all federal, state and local government web resources and services.